Wednesday, June 20, 2018, 3:43 AM EDT
Back to Local

KDSV, Dansville Municipal Airport

Location: Dansville, NY, United States Lat: 42.567
Local Time: 3:43 AM EDT ( 7:43 GMT) Lon: -77.717
Time Zone: US/Eastern Elev: 662 ft

Show me the last for .
Show Decoded

2018-06-20 02:54 METAR KDSV 200654Z AUTO 16005KT 10SM CLR 16/12 A2994 RMK AO2 SLP144 T01610117 =
2018-06-20 01:54 METAR KDSV 200554Z AUTO 16003KT 10SM CLR 16/12 A2996 RMK AO2 SLP150 T01610117
                 10217 20161 58007 =
2018-06-20 00:54 METAR KDSV 200454Z AUTO 14005KT 10SM CLR 16/12 A2997 RMK AO2 SLP155 T01610117
                 402500161 =
2018-06-19 23:54 METAR KDSV 200354Z AUTO 00000KT 10SM CLR 18/11 A2998 RMK AO2 SLP156 T01780111 =
2018-06-19 22:54 METAR KDSV 200254Z AUTO 19003KT 10SM CLR 18/11 A2998 RMK AO2 SLP158 T01830106
                 53006 =
2018-06-19 21:54 METAR KDSV 200154Z AUTO 10004KT 10SM CLR 19/09 A2997 RMK AO2 SLP156 T01890094 =
2018-06-19 20:54 METAR KDSV 200054Z AUTO 31003KT 10SM CLR 21/09 A2996 RMK AO2 SLP151 T02060094 =
2018-06-19 19:54 METAR KDSV 192354Z AUTO 32005KT 10SM CLR 22/09 A2996 RMK AO2 SLP151 T02170094
                 10250 20217 57001 =
2018-06-19 18:54 METAR KDSV 192254Z AUTO 32008KT 10SM CLR 24/09 A2996 RMK AO2 SLP152 T02390094 =
2018-06-19 17:54 METAR KDSV 192154Z AUTO 32009KT 10SM CLR 24/08 A2996 RMK AO2 SLP150 T02440083 =
2018-06-19 16:54 METAR KDSV 192054Z AUTO 32012G15KT 10SM CLR 24/09 A2996 RMK AO2 SLP151 T02440089
                 58009 =
2018-06-19 15:54 METAR KDSV 191954Z AUTO 33009KT 10SM CLR 24/10 A2998 RMK AO2 SLP156 T02440100 =
2018-06-19 14:54 METAR KDSV 191854Z AUTO 33006KT 10SM CLR 24/12 A2999 RMK AO2 SLP159 T02440122 =
2018-06-19 13:54 METAR KDSV 191754Z AUTO 31008KT 10SM CLR 23/12 A2999 RMK AO2 SLP161 T02330117
                 10239 20183 58007 =
2018-06-19 12:54 METAR KDSV 191654Z AUTO 10SM CLR 23/12 A3000 RMK AO2 SLP164 T02280122 =
2018-06-19 11:54 METAR KDSV 191554Z AUTO 32009KT 10SM BKN031 22/13 A3001 RMK AO2 SLP166 T02220128
                 =
2018-06-19 11:12 METAR KDSV 191512Z AUTO 33010KT 10SM BKN032 21/13 A3001 RMK AO2 T02110133 =
2018-06-19 10:54 METAR KDSV 191454Z AUTO 31009KT 10SM BKN028 BKN036 20/13 A3001 RMK AO2 SLP167
                 T02000133 58003 =
2018-06-19 10:52 METAR KDSV 191452Z AUTO 33010KT 10SM BKN028 BKN036 21/14 A3001 RMK AO2 =
2018-06-19 10:44 METAR KDSV 191444Z AUTO 33010KT 10SM SCT028 BKN034 21/13 A3001 RMK AO2 T02060133
                 =
2018-06-19 10:17 METAR KDSV 191417Z AUTO 34010KT 10SM BKN029 BKN035 21/13 A3001 RMK AO2 T02110133
                 =
2018-06-19 09:54 METAR KDSV 191354Z AUTO 36009KT 10SM FEW025 BKN031 21/13 A3002 RMK AO2 SLP170
                 T02060133 =
2018-06-19 08:54 METAR KDSV 191254Z AUTO 36008KT 10SM BKN022 19/13 A3002 RMK AO2 SLP170 T01940133
                 =
2018-06-19 07:54 METAR KDSV 191154Z AUTO 35007KT 10SM BKN020 OVC025 18/15 A3001 RMK AO2 SLP166
                 60001 70041 T01830150 10217 20178 51026 =
2018-06-19 06:54 METAR KDSV 191054Z AUTO 32009KT 10SM BKN022 18/14 A2999 RMK AO2 SLP162 T01830144
                 $ =
2018-06-19 06:44 METAR KDSV 191044Z AUTO 32006KT 10SM BKN022 18/14 A2999 RMK AO2 T01830144 $ =
2018-06-19 06:30 METAR KDSV 191030Z AUTO 34008KT 10SM SCT023 18/14 A2998 RMK AO2 T01780144 $ =
2018-06-19 05:54 METAR KDSV 190954Z AUTO 34006KT 10SM FEW018 BKN024 BKN070 18/15 A2996 RMK AO2
                 SLP150 T01830150 $ =
2018-06-19 05:01 METAR KDSV 190901Z AUTO 31009G18KT 10SM FEW011 BKN017 OVC027 19/17 A2993 RMK AO2
                 T01940167 $ =
2018-06-19 04:54 METAR KDSV 190854Z AUTO 33012G18KT 10SM BKN011 BKN017 OVC039 19/17 A2993 RMK AO2
                 RAE0755 SLP138 P0000 60001 T01940167 53018 $ =
2018-06-19 04:06 METAR KDSV 190806Z AUTO 29008KT 10SM FEW008 BKN013 OVC022 19/17 A2990 RMK AO2
                 RAE0755 P0000 T01940172 $ =
2018-06-19 03:54 METAR KDSV 190754Z AUTO 32008KT 10SM -RA FEW005 SCT013 OVC022 20/17 A2990 RMK
                 AO2 RAB0659 SLP126 P0001 T02000172 $ =
2018-06-19 03:45 METAR KDSV 190745Z AUTO 33013G23KT 4SM -RA BR FEW005 BKN010 OVC018 20/18 A2989
                 RMK AO2 RAB0659 CIG 008V013 P0001 T02000183 $ =

Support USWX by starting your Amazon purchase here.